Aviation Digital Data Service (ADDS)

Output produced by TAFs form (0749 UTC 25 March 2017)
found at http://www.aviationweather.gov/adds/tafs/
 
METAR text: RJEC 250700Z 22004KT 9999 VCSH FEW025 SCT050 BKN060 02/M04 Q1017
Conditions at: RJEC (ASAHIKAWA AIRPOR, JP) observed 0700 UTC 25 March 2017
Temperature: 2.0°C (36°F)
Dewpoint: -4.0°C (25°F) [RH = 64%]
Pressure (altimeter): 30.03 inches Hg (1017.0 mb)
Winds: from the SW (220 degrees) at 5 MPH (4 knots; 2.1 m/s)
Visibility: 6 or more miles (10+ km)
Ceiling: 6000 feet AGL
Clouds: few clouds at 2500 feet AGL
scattered clouds at 5000 feet AGL
broken clouds at 6000 feet AGL
Weather: VCSH  (showers in vicinity)

Forecast for: RJEC (ASAHIKAWA AIRPOR, JP)
Text: TAF AMD RJEC 250646Z 2506/2612 18005KT 9999 FEW030 SCT040
Forecast period: 0600 UTC 25 March 2017 to 1200 UTC 26 March 2017
Forecast type: FROM: standard forecast or significant change
Winds: from the S (180 degrees) at 6 MPH (5 knots; 2.6 m/s)
Visibility: 6 or more miles (10+ km)
Clouds: few clouds at 3000 feet AGL
scattered clouds at 4000 feet AGL
Weather: no significant weather forecast for this period